createdAt,value
2019-05-29T00:02:08.710Z,60.78
2019-05-29T00:04:42.080Z,50.56
2019-05-29T00:07:15.557Z,47.94
2019-05-29T00:09:48.945Z,50.32
2019-05-29T00:12:22.304Z,52.89
2019-05-29T00:14:55.688Z,54.76
2019-05-29T00:17:29.031Z,56.28
2019-05-29T00:20:02.338Z,57.58
2019-05-29T00:22:35.702Z,58.81
2019-05-29T00:25:10.501Z,59.93
2019-05-29T00:27:43.982Z,60.35
2019-05-29T00:30:19.821Z,60.27
2019-05-29T00:32:53.156Z,59.91
2019-05-29T00:35:26.531Z,60.70
2019-05-29T00:37:59.789Z,61.21
2019-05-29T00:40:34.268Z,60.71
2019-05-29T00:43:09.091Z,61.61
2019-05-29T00:45:42.404Z,62.49
2019-05-29T00:48:16.114Z,59.83
2019-05-29T00:50:49.545Z,52.02
2019-05-29T00:53:23.915Z,53.82
2019-05-29T00:55:57.289Z,55.41
2019-05-29T00:58:31.640Z,56.84
2019-05-29T01:01:05.095Z,58.18
2019-05-29T01:03:38.457Z,58.33
2019-05-29T01:06:12.077Z,59.31
2019-05-29T01:08:45.709Z,59.89
2019-05-29T01:11:19.108Z,60.64
2019-05-29T01:13:53.833Z,61.10
2019-05-29T01:16:27.231Z,62.11
2019-05-29T01:19:20.289Z,62.57
2019-05-29T01:21:53.930Z,59.23
2019-05-29T01:24:28.451Z,52.99
2019-05-29T01:27:01.909Z,53.87
2019-05-29T01:29:35.302Z,55.89
2019-05-29T01:32:08.710Z,56.92
2019-05-29T01:34:42.412Z,58.28
2019-05-29T01:37:16.150Z,58.68
2019-05-29T01:39:49.542Z,59.37
2019-05-29T01:42:24.299Z,60.22
2019-05-29T01:45:07.294Z,60.97
2019-05-29T01:47:32.817Z,61.56
2019-05-29T01:50:06.337Z,62.06
2019-05-29T01:52:40.880Z,62.67
2019-05-29T01:55:15.752Z,60.86
2019-05-29T01:57:50.603Z,50.16
2019-05-29T02:00:24.701Z,47.54
2019-05-29T02:02:59.440Z,49.30
2019-05-29T02:05:32.891Z,51.62
2019-05-29T02:08:06.300Z,53.09
2019-05-29T02:10:39.670Z,54.21
2019-05-29T02:13:13.062Z,55.19
2019-05-29T02:15:46.461Z,56.28
2019-05-29T02:18:20.770Z,57.27
2019-05-29T02:20:54.253Z,57.86
2019-05-29T02:23:28.304Z,58.65
2019-05-29T02:26:01.678Z,59.28
2019-05-29T02:28:36.108Z,60.02
2019-05-29T02:31:09.477Z,60.65
2019-05-29T02:33:42.852Z,61.03
2019-05-29T02:36:17.720Z,61.58
2019-05-29T02:38:51.333Z,62.10
2019-05-29T02:41:26.178Z,60.91
2019-05-29T02:43:59.697Z,50.15
2019-05-29T02:46:33.100Z,46.65
2019-05-29T02:49:06.529Z,49.04
2019-05-29T02:51:41.027Z,51.12
2019-05-29T02:54:14.436Z,52.58
2019-05-29T02:56:47.759Z,53.91
2019-05-29T02:59:21.320Z,54.76
2019-05-29T03:01:57.244Z,55.76
2019-05-29T03:04:32.546Z,56.69
2019-05-29T03:07:05.875Z,57.23
2019-05-29T03:09:39.437Z,58.57
2019-05-29T03:12:12.872Z,58.89
2019-05-29T03:14:46.313Z,59.62
2019-05-29T03:17:19.734Z,60.26
2019-05-29T03:19:53.154Z,61.08
2019-05-29T03:22:28.792Z,61.48
2019-05-29T03:25:03.005Z,62.20
2019-05-29T03:27:38.027Z,61.61
2019-05-29T03:30:11.491Z,50.94
2019-05-29T03:32:48.430Z,47.27
2019-05-29T03:35:22.343Z,49.68
2019-05-29T03:37:58.825Z,52.04
2019-05-29T03:40:33.137Z,53.81
2019-05-29T03:43:06.305Z,54.91
2019-05-29T03:45:39.782Z,55.86
2019-05-29T03:48:13.385Z,56.88
2019-05-29T03:50:46.775Z,57.73
2019-05-29T03:53:20.173Z,58.67
2019-05-29T03:55:53.588Z,59.43
2019-05-29T03:58:28.915Z,59.80
2019-05-29T04:01:02.395Z,60.78
2019-05-29T04:03:37.712Z,61.40
2019-05-29T04:06:10.784Z,61.95
2019-05-29T04:08:44.233Z,61.22
2019-05-29T04:11:17.677Z,51.14
2019-05-29T04:13:51.309Z,48.13
2019-05-29T04:16:27.550Z,49.73
2019-05-29T04:19:02.120Z,52.24
2019-05-29T04:21:36.390Z,53.70
2019-05-29T04:24:11.615Z,54.40
2019-05-29T04:26:48.086Z,55.75
2019-05-29T04:29:22.947Z,56.96
2019-05-29T04:31:56.211Z,57.80
2019-05-29T04:34:30.182Z,58.74
2019-05-29T04:37:07.289Z,59.17
2019-05-29T04:39:43.907Z,60.09
2019-05-29T04:42:17.243Z,60.61
2019-05-29T04:44:50.413Z,61.33
2019-05-29T04:47:23.656Z,61.77
2019-05-29T04:49:56.921Z,62.21
2019-05-29T04:52:31.389Z,61.05
2019-05-29T04:55:05.126Z,50.72
2019-05-29T04:57:39.287Z,47.64
2019-05-29T05:00:14.174Z,49.46
2019-05-29T05:02:48.049Z,51.92
2019-05-29T05:05:21.275Z,53.45
2019-05-29T05:07:54.632Z,54.78
2019-05-29T05:10:41.035Z,55.55
2019-05-29T05:13:14.596Z,55.95
2019-05-29T05:15:48.252Z,57.06
2019-05-29T05:18:21.620Z,58.01
2019-05-29T05:20:54.839Z,59.02
2019-05-29T05:23:29.952Z,59.68
2019-05-29T05:26:03.255Z,60.34
2019-05-29T05:28:36.553Z,60.56
2019-05-29T05:31:09.823Z,60.99
2019-05-29T05:33:43.096Z,60.99
2019-05-29T05:36:17.414Z,61.86
2019-05-29T05:38:50.661Z,62.45
2019-05-29T05:41:23.885Z,59.55
2019-05-29T05:43:57.207Z,52.36
2019-05-29T05:46:30.978Z,53.60
2019-05-29T05:49:04.234Z,55.38
2019-05-29T05:51:41.129Z,55.83
2019-05-29T05:54:12.254Z,56.78
2019-05-29T05:56:46.075Z,57.61
2019-05-29T05:59:19.264Z,57.77
2019-05-29T06:01:52.492Z,58.52
2019-05-29T06:04:25.880Z,58.98
2019-05-29T06:06:59.158Z,58.09
2019-05-29T06:09:32.670Z,58.30
2019-05-29T06:12:06.052Z,59.98
2019-05-29T06:14:40.555Z,58.87
2019-05-29T06:17:13.806Z,59.16
2019-05-29T06:19:48.007Z,57.64
2019-05-29T06:22:21.234Z,57.48
2019-05-29T06:24:54.536Z,58.24
2019-05-29T06:27:27.682Z,58.05
2019-05-29T06:30:00.877Z,59.25
2019-05-29T06:32:35.262Z,57.62
2019-05-29T06:35:09.334Z,57.72
2019-05-29T06:37:43.642Z,55.65
2019-05-29T06:40:38.210Z,54.70
2019-05-29T06:43:23.636Z,56.47
2019-05-29T06:45:58.306Z,56.13
2019-05-29T06:48:46.645Z,54.99
2019-05-29T06:51:06.801Z,56.77
2019-05-29T06:53:39.945Z,55.13
2019-05-29T06:56:13.231Z,53.36
2019-05-29T06:58:46.434Z,52.36
2019-05-29T07:01:19.883Z,53.35
2019-05-29T07:04:10.720Z,53.26
2019-05-29T07:06:28.012Z,51.85
2019-05-29T07:09:01.216Z,50.70
2019-05-29T07:11:35.203Z,48.68
2019-05-29T07:14:09.418Z,49.88
2019-05-29T07:16:51.524Z,50.01
2019-05-29T07:19:25.731Z,51.84
2019-05-29T07:21:53.557Z,50.93
2019-05-29T07:24:27.476Z,51.69
2019-05-29T07:27:00.720Z,51.61
2019-05-29T07:29:33.971Z,50.22
2019-05-29T07:32:07.287Z,49.44
2019-05-29T07:34:55.215Z,50.65
2019-05-29T07:37:15.443Z,49.91
2019-05-29T07:39:48.742Z,49.48
2019-05-29T07:42:22.018Z,49.06
2019-05-29T07:44:55.230Z,50.45
2019-05-29T07:47:28.495Z,48.58
2019-05-29T07:50:01.705Z,48.91
2019-05-29T07:52:34.981Z,47.55
2019-05-29T07:55:09.989Z,47.84
2019-05-29T07:57:44.797Z,47.64
2019-05-29T08:00:19.501Z,49.29
2019-05-29T08:02:52.740Z,48.74
2019-05-29T08:05:26.027Z,47.39
2019-05-29T08:07:59.181Z,48.97
2019-05-29T08:10:32.363Z,48.50
2019-05-29T08:13:05.928Z,48.44
2019-05-29T08:15:54.984Z,49.40
2019-05-29T08:18:13.987Z,50.08
2019-05-29T08:20:48.179Z,49.16
2019-05-29T08:23:21.552Z,50.40
2019-05-29T08:25:54.795Z,49.88
2019-05-29T08:28:28.128Z,48.80
2019-05-29T08:31:01.352Z,48.60
2019-05-29T08:33:34.670Z,49.47
2019-05-29T08:36:07.930Z,48.50
2019-05-29T08:38:43.803Z,47.17
2019-05-29T08:41:16.124Z,49.10
2019-05-29T08:43:50.607Z,47.61
2019-05-29T08:46:24.097Z,48.54
2019-05-29T08:48:57.449Z,48.44
2019-05-29T08:51:30.642Z,48.11
2019-05-29T08:54:21.044Z,46.88
2019-05-29T08:56:38.829Z,46.90
2019-05-29T08:59:12.078Z,47.77
2019-05-29T09:01:48.320Z,45.21
2019-05-29T09:04:21.548Z,45.98
2019-05-29T09:06:54.769Z,46.09
2019-05-29T09:09:28.033Z,45.87
2019-05-29T09:12:01.262Z,45.76
2019-05-29T09:14:34.526Z,46.35
2019-05-29T09:17:09.201Z,47.68
2019-05-29T09:19:42.453Z,45.59
2019-05-29T09:22:16.503Z,44.52
2019-05-29T09:24:49.916Z,46.76
2019-05-29T09:27:23.357Z,47.08
2019-05-29T09:29:56.612Z,46.14
2019-05-29T09:32:48.904Z,46.15
2019-05-29T09:35:05.069Z,45.64
2019-05-29T09:37:38.267Z,45.72
2019-05-29T09:40:19.249Z,46.17
2019-05-29T09:42:53.090Z,44.07
2019-05-29T09:45:26.381Z,44.89
2019-05-29T09:47:59.706Z,45.69
2019-05-29T09:50:49.606Z,45.55
2019-05-29T09:53:08.192Z,45.75
2019-05-29T09:55:41.865Z,45.26
2019-05-29T09:58:15.197Z,44.87
2019-05-29T10:01:09.545Z,45.94
2019-05-29T10:03:24.199Z,45.03
2019-05-29T10:05:57.638Z,44.61
2019-05-29T10:08:30.894Z,45.47
2019-05-29T10:11:08.677Z,46.12
2019-05-29T10:13:38.992Z,44.28
2019-05-29T10:16:13.012Z,43.09
2019-05-29T10:18:47.238Z,44.13
2019-05-29T10:21:38.173Z,43.08
2019-05-29T10:23:56.595Z,44.68
2019-05-29T10:26:30.246Z,45.26
2019-05-29T10:29:08.581Z,46.23
2019-05-29T10:31:38.990Z,46.19
2019-05-29T10:34:12.490Z,46.08
2019-05-29T10:36:48.256Z,47.11
2019-05-29T10:39:20.676Z,47.49
2019-05-29T10:41:54.392Z,46.07
2019-05-29T10:44:27.663Z,45.92
2019-05-29T10:47:01.152Z,46.80
2019-05-29T10:49:34.669Z,45.74
2019-05-29T10:52:15.540Z,46.20
2019-05-29T10:54:44.102Z,46.18
2019-05-29T10:57:17.602Z,46.12
2019-05-29T10:59:51.083Z,46.75
2019-05-29T11:02:24.592Z,47.51
2019-05-29T11:04:59.463Z,47.81
2019-05-29T11:07:33.191Z,48.60
2019-05-29T11:10:07.425Z,48.16
2019-05-29T11:12:40.684Z,48.29
2019-05-29T11:15:21.425Z,48.54
2019-05-29T11:17:51.431Z,48.42
2019-05-29T11:20:25.610Z,48.85
2019-05-29T11:22:59.049Z,46.22
2019-05-29T11:25:32.428Z,46.23
2019-05-29T11:28:05.705Z,47.54
2019-05-29T11:30:38.840Z,46.89
2019-05-29T11:33:12.035Z,47.35
2019-05-29T11:35:58.062Z,45.87
2019-05-29T11:38:20.154Z,46.16
2019-05-29T11:41:20.431Z,46.78
2019-05-29T11:43:28.476Z,46.85
2019-05-29T11:46:02.111Z,46.60
2019-05-29T11:48:35.501Z,46.26
2019-05-29T11:51:08.736Z,45.69
2019-05-29T11:53:41.930Z,45.04
2019-05-29T11:56:15.185Z,45.85
2019-05-29T11:58:50.727Z,47.28
2019-05-29T12:01:24.440Z,46.78
2019-05-29T12:04:21.895Z,46.98
2019-05-29T12:06:33.254Z,46.72
2019-05-29T12:09:10.077Z,46.32
2019-05-29T12:11:43.433Z,46.53
2019-05-29T12:14:16.699Z,44.95
2019-05-29T12:16:51.643Z,45.96
2019-05-29T12:19:25.631Z,46.09
2019-05-29T12:22:00.449Z,45.61
2019-05-29T12:24:34.098Z,46.33
2019-05-29T12:27:07.890Z,45.46
2019-05-29T12:29:41.448Z,45.65
2019-05-29T12:32:14.907Z,45.55
2019-05-29T12:34:53.448Z,46.07
2019-05-29T12:37:23.131Z,45.33
2019-05-29T12:39:57.435Z,44.70
2019-05-29T12:42:30.746Z,44.71
2019-05-29T12:45:04.360Z,44.29
2019-05-29T12:47:37.747Z,42.97
2019-05-29T12:50:12.935Z,42.91
2019-05-29T12:52:46.293Z,43.73
2019-05-29T12:55:19.763Z,43.45
2019-05-29T12:57:53.821Z,43.27
2019-05-29T13:00:27.692Z,43.32
2019-05-29T13:03:02.913Z,44.65
2019-05-29T13:05:37.932Z,43.16
2019-05-29T13:08:11.268Z,42.80
2019-05-29T13:10:45.019Z,42.84
2019-05-29T13:13:18.549Z,41.71
2019-05-29T13:15:51.945Z,40.69
2019-05-29T13:18:25.176Z,39.27
2019-05-29T13:20:58.923Z,40.73
2019-05-29T13:23:44.638Z,40.30
2019-05-29T13:26:08.292Z,40.67
2019-05-29T13:28:41.519Z,40.22
2019-05-29T13:31:15.235Z,40.82
2019-05-29T13:33:48.479Z,40.05
2019-05-29T13:36:21.728Z,40.92
2019-05-29T13:38:55.973Z,41.47
2019-05-29T13:41:29.845Z,40.89
2019-05-29T13:44:04.636Z,40.18
2019-05-29T13:46:38.426Z,40.86
2019-05-29T13:49:11.661Z,40.43
2019-05-29T13:51:45.707Z,39.94
2019-05-29T13:54:19.092Z,39.92
2019-05-29T13:56:52.458Z,41.45
2019-05-29T13:59:25.730Z,41.28
2019-05-29T14:02:00.227Z,40.88
2019-05-29T14:04:35.418Z,40.54
2019-05-29T14:07:08.920Z,40.40
2019-05-29T14:09:42.266Z,39.70
2019-05-29T14:12:15.987Z,39.89
2019-05-29T14:14:49.294Z,40.87
2019-05-29T14:17:22.453Z,41.79
2019-05-29T14:19:55.673Z,41.63
2019-05-29T14:22:29.005Z,40.18
2019-05-29T14:25:03.242Z,40.27
2019-05-29T14:27:36.577Z,41.42
2019-05-29T14:30:10.894Z,40.55
2019-05-29T14:32:44.511Z,40.63
2019-05-29T14:35:17.857Z,41.24
2019-05-29T14:37:51.276Z,41.28
2019-05-29T14:40:26.157Z,40.96
2019-05-29T14:43:00.020Z,40.19
2019-05-29T14:45:33.334Z,39.49
2019-05-29T14:48:06.581Z,41.32
2019-05-29T14:50:40.098Z,41.43
2019-05-29T14:53:13.602Z,40.55
2019-05-29T14:55:47.042Z,41.01
2019-05-29T14:58:20.231Z,40.31
2019-05-29T15:00:53.556Z,41.59
2019-05-29T15:03:26.818Z,41.37
2019-05-29T15:06:00.167Z,41.12
2019-05-29T15:08:33.447Z,41.09
2019-05-29T15:11:08.406Z,40.88
2019-05-29T15:13:41.733Z,40.99
2019-05-29T15:16:15.010Z,41.17
2019-05-29T15:18:48.196Z,40.46
2019-05-29T15:21:21.454Z,40.69
2019-05-29T15:23:54.709Z,41.69
2019-05-29T15:26:27.957Z,40.85
2019-05-29T15:29:01.678Z,41.92
2019-05-29T15:31:34.889Z,40.92
2019-05-29T15:34:10.280Z,40.25
2019-05-29T15:36:44.100Z,40.21
2019-05-29T15:39:17.445Z,41.47
2019-05-29T15:41:50.756Z,42.54
2019-05-29T15:44:24.020Z,41.55
2019-05-29T15:46:57.257Z,41.16
2019-05-29T15:49:31.572Z,41.32
2019-05-29T15:52:04.993Z,39.93
2019-05-29T15:54:38.545Z,40.05
2019-05-29T15:57:13.088Z,40.93
2019-05-29T15:59:46.505Z,40.10
2019-05-29T16:02:19.845Z,41.15
2019-05-29T16:04:54.607Z,40.31
2019-05-29T16:07:27.848Z,40.05
2019-05-29T16:10:02.115Z,39.90
2019-05-29T16:12:35.412Z,40.52
2019-05-29T16:15:11.076Z,40.76
2019-05-29T16:17:44.528Z,41.26
2019-05-29T16:20:18.650Z,40.55
2019-05-29T16:22:52.186Z,40.13
2019-05-29T16:25:39.421Z,40.85
2019-05-29T16:28:00.318Z,40.14
2019-05-29T16:30:33.662Z,41.16
2019-05-29T16:33:06.901Z,41.01
2019-05-29T16:35:40.216Z,41.71
2019-05-29T16:38:14.040Z,41.40
2019-05-29T16:40:47.750Z,41.66
2019-05-29T16:43:22.220Z,42.00
2019-05-29T16:45:56.764Z,41.45
2019-05-29T16:48:30.046Z,41.62
2019-05-29T16:51:03.408Z,42.89
2019-05-29T16:53:36.669Z,43.08
2019-05-29T16:56:10.056Z,42.96
2019-05-29T16:58:43.294Z,42.46
2019-05-29T17:01:19.388Z,42.62
2019-05-29T17:03:53.011Z,42.80
2019-05-29T17:06:26.318Z,43.07
2019-05-29T17:09:01.970Z,42.54
2019-05-29T17:11:35.781Z,43.13
2019-05-29T17:14:09.559Z,43.53
2019-05-29T17:16:42.978Z,43.34
2019-05-29T17:19:16.609Z,43.17
2019-05-29T17:21:49.861Z,43.80
2019-05-29T17:24:23.186Z,44.10
2019-05-29T17:26:56.446Z,43.48
2019-05-29T17:29:29.678Z,44.10
2019-05-29T17:32:02.946Z,44.64
2019-05-29T17:34:36.113Z,44.67
2019-05-29T17:37:09.444Z,44.71
2019-05-29T17:39:42.770Z,45.57
2019-05-29T17:42:20.221Z,45.14
2019-05-29T17:44:53.561Z,45.46
2019-05-29T17:47:26.910Z,45.14
2019-05-29T17:50:00.217Z,45.13
2019-05-29T17:52:34.469Z,45.14
2019-05-29T17:55:08.180Z,45.75
2019-05-29T17:57:41.696Z,46.36
2019-05-29T18:00:20.565Z,46.33
2019-05-29T18:02:54.642Z,46.51
2019-05-29T18:05:28.972Z,47.03
2019-05-29T18:08:02.412Z,47.37
2019-05-29T18:10:35.811Z,47.83
2019-05-29T18:13:09.228Z,48.30
2019-05-29T18:15:42.657Z,48.55
2019-05-29T18:18:17.351Z,48.84
2019-05-29T18:20:50.847Z,49.23
2019-05-29T18:23:24.294Z,49.20
2019-05-29T18:25:58.576Z,49.31
2019-05-29T18:28:33.690Z,49.54
2019-05-29T18:31:07.046Z,49.62
2019-05-29T18:33:41.195Z,49.74
2019-05-29T18:36:14.463Z,49.58
2019-05-29T18:38:47.828Z,50.75
2019-05-29T18:41:22.227Z,51.25
2019-05-29T18:43:55.727Z,51.41
2019-05-29T18:46:30.068Z,51.38
2019-05-29T18:49:04.434Z,51.01
2019-05-29T18:51:37.736Z,50.89
2019-05-29T18:54:11.121Z,51.34
2019-05-29T18:56:44.409Z,51.61
2019-05-29T18:59:18.725Z,51.50
2019-05-29T19:01:52.254Z,51.15
2019-05-29T19:04:25.994Z,51.76
2019-05-29T19:06:59.523Z,51.64
2019-05-29T19:09:33.230Z,51.72
2019-05-29T19:12:06.486Z,51.78
2019-05-29T19:14:39.853Z,51.29
2019-05-29T19:17:13.125Z,51.16
2019-05-29T19:19:46.446Z,50.91
2019-05-29T19:22:19.689Z,51.13
2019-05-29T19:24:53.366Z,51.33
2019-05-29T19:27:33.245Z,51.23
2019-05-29T19:30:01.605Z,51.20
2019-05-29T19:32:35.555Z,51.37
2019-05-29T19:35:09.770Z,51.26
2019-05-29T19:37:43.157Z,51.18
2019-05-29T19:40:16.726Z,51.06
2019-05-29T19:42:50.069Z,50.59
2019-05-29T19:45:24.632Z,50.85
2019-05-29T19:47:59.037Z,51.28
2019-05-29T19:50:32.922Z,51.39
2019-05-29T19:53:06.352Z,51.19
2019-05-29T19:55:39.629Z,51.55
2019-05-29T19:58:13.287Z,51.01
2019-05-29T20:00:46.616Z,50.90
2019-05-29T20:03:20.274Z,50.52
2019-05-29T20:05:53.684Z,49.65
2019-05-29T20:08:27.096Z,49.23
2019-05-29T20:11:00.713Z,49.22
2019-05-29T20:13:34.072Z,48.92
2019-05-29T20:16:08.678Z,48.95
2019-05-29T20:18:42.017Z,49.38
2019-05-29T20:21:15.284Z,49.19
2019-05-29T20:23:48.647Z,48.72
2019-05-29T20:26:22.132Z,48.61
2019-05-29T20:28:55.472Z,48.62
2019-05-29T20:31:28.806Z,47.76
2019-05-29T20:34:02.106Z,47.45
2019-05-29T20:36:37.242Z,46.53
2019-05-29T20:39:10.302Z,47.17
2019-05-29T20:41:43.694Z,46.84
2019-05-29T20:44:16.888Z,46.78
2019-05-29T20:46:50.192Z,47.09
2019-05-29T20:49:23.564Z,46.95
2019-05-29T20:51:56.899Z,46.79
2019-05-29T20:54:31.557Z,46.72
2019-05-29T20:57:18.015Z,46.54
2019-05-29T21:00:25.285Z,46.87
2019-05-29T21:03:00.754Z,47.17
2019-05-29T21:05:36.719Z,46.86
2019-05-29T21:08:10.613Z,46.83
2019-05-29T21:10:45.363Z,46.78
2019-05-29T21:13:20.400Z,46.82
2019-05-29T21:15:54.025Z,46.94
2019-05-29T21:18:31.165Z,47.00
2019-05-29T21:21:04.708Z,46.38
2019-05-29T21:23:38.891Z,46.68
2019-05-29T21:26:12.368Z,46.96
2019-05-29T21:28:50.473Z,46.40
2019-05-29T21:31:20.830Z,46.49
2019-05-29T21:33:54.250Z,46.41
2019-05-29T21:36:28.439Z,46.75
2019-05-29T21:39:01.872Z,47.14
2019-05-29T21:41:36.288Z,46.73
2019-05-29T21:44:09.805Z,46.69
2019-05-29T21:46:43.257Z,46.80
2019-05-29T21:49:16.730Z,46.96
2019-05-29T21:51:50.140Z,46.77
2019-05-29T21:54:23.528Z,46.90
2019-05-29T21:56:56.895Z,46.85
2019-05-29T21:59:30.495Z,46.87
2019-05-29T22:02:04.547Z,47.06
2019-05-29T22:04:38.376Z,46.84
2019-05-29T22:07:11.798Z,46.82
2019-05-29T22:09:45.317Z,47.01
2019-05-29T22:12:18.834Z,46.92
2019-05-29T22:14:53.335Z,46.91
2019-05-29T22:17:27.229Z,46.84
2019-05-29T22:20:01.154Z,46.74
2019-05-29T22:22:34.660Z,46.92
2019-05-29T22:25:08.520Z,47.15
2019-05-29T22:27:41.937Z,47.17
2019-05-29T22:30:15.749Z,46.81
2019-05-29T22:32:49.099Z,47.17
2019-05-29T22:35:22.772Z,47.47
2019-05-29T22:37:57.553Z,47.27
2019-05-29T22:40:31.168Z,47.40
2019-05-29T22:43:04.691Z,47.44
2019-05-29T22:45:38.465Z,48.01
2019-05-29T22:48:11.987Z,48.13
2019-05-29T22:50:45.405Z,48.11
2019-05-29T22:53:19.748Z,48.36
2019-05-29T22:55:54.064Z,48.64
2019-05-29T22:58:27.492Z,48.44
2019-05-29T23:01:02.231Z,48.82
2019-05-29T23:03:35.662Z,48.81
2019-05-29T23:06:09.142Z,49.43
2019-05-29T23:08:43.673Z,49.79
2019-05-29T23:11:17.003Z,49.89
2019-05-29T23:13:50.382Z,50.09
2019-05-29T23:16:23.798Z,49.61
2019-05-29T23:18:57.116Z,49.77
2019-05-29T23:21:30.688Z,50.49
2019-05-29T23:24:04.012Z,50.80
2019-05-29T23:26:37.338Z,50.86
2019-05-29T23:29:10.720Z,51.95
2019-05-29T23:31:44.098Z,52.68
2019-05-29T23:34:17.508Z,53.53
2019-05-29T23:36:50.977Z,53.62
2019-05-29T23:39:24.406Z,53.37
2019-05-29T23:41:57.851Z,53.39
2019-05-29T23:44:31.274Z,53.37
2019-05-29T23:47:05.707Z,53.66
2019-05-29T23:49:39.112Z,53.93
2019-05-29T23:52:12.590Z,54.02
2019-05-29T23:54:46.065Z,53.90
2019-05-29T23:57:19.347Z,53.94
